createdAt,value
2023-05-15T00:00:20.240Z,80.04
2023-05-15T00:02:41.811Z,77.38
2023-05-15T00:05:04.984Z,76.55
2023-05-15T00:07:26.585Z,75.91
2023-05-15T00:09:48.041Z,75.83
2023-05-15T00:12:09.511Z,75.49
2023-05-15T00:14:31.053Z,75.11
2023-05-15T00:16:52.479Z,75.32
2023-05-15T00:19:14.718Z,74.81
2023-05-15T00:21:36.312Z,74.36
2023-05-15T00:23:58.470Z,74.54
2023-05-15T00:26:20.091Z,74.99
2023-05-15T00:28:41.791Z,77.12
2023-05-15T00:31:03.265Z,77.63
2023-05-15T00:33:24.770Z,76.04
2023-05-15T00:35:46.480Z,76.44
2023-05-15T00:38:07.966Z,76.55
2023-05-15T00:40:30.858Z,75.78
2023-05-15T00:42:52.863Z,75.76
2023-05-15T00:45:15.291Z,75.03
2023-05-15T00:47:40.373Z,74.99
2023-05-15T00:50:03.019Z,74.95
2023-05-15T00:52:24.596Z,74.79
2023-05-15T00:54:46.042Z,74.66
2023-05-15T00:57:08.919Z,74.67
2023-05-15T00:59:31.697Z,76.68
2023-05-15T01:01:53.312Z,75.51
2023-05-15T01:04:14.825Z,75.55
2023-05-15T01:06:36.510Z,74.93
2023-05-15T01:09:02.217Z,75.07
2023-05-15T01:11:27.694Z,74.64
2023-05-15T01:13:49.127Z,75.21
2023-05-15T01:16:10.904Z,77.67
2023-05-15T01:18:33.425Z,76.13
2023-05-15T01:21:13.707Z,76.21
2023-05-15T01:23:57.072Z,77.50
2023-05-15T01:26:46.378Z,76.36
2023-05-15T01:29:20.633Z,75.51
2023-05-15T01:31:45.496Z,74.97
2023-05-15T01:34:09.450Z,74.34
2023-05-15T01:36:38.543Z,75.32
2023-05-15T01:39:03.427Z,74.94
2023-05-15T01:41:45.484Z,74.59
2023-05-15T01:44:26.162Z,74.05
2023-05-15T01:46:51.273Z,74.29
2023-05-15T01:49:15.998Z,74.37
2023-05-15T01:51:39.246Z,74.74
2023-05-15T01:54:01.364Z,74.47
2023-05-15T01:56:24.333Z,74.55
2023-05-15T01:58:48.196Z,74.51
2023-05-15T02:01:10.873Z,74.58
2023-05-15T02:03:34.605Z,75.02
2023-05-15T02:05:56.697Z,74.57
2023-05-15T02:08:18.565Z,75.27
2023-05-15T02:10:40.690Z,74.60
2023-05-15T02:13:02.553Z,75.00
2023-05-15T02:15:25.018Z,75.29
2023-05-15T02:17:46.793Z,74.99
2023-05-15T02:20:09.063Z,74.63
2023-05-15T02:22:30.626Z,75.83
2023-05-15T02:24:52.220Z,75.05
2023-05-15T02:27:20.594Z,74.28
2023-05-15T02:30:03.599Z,73.61
2023-05-15T02:32:34.966Z,73.53
2023-05-15T02:35:14.339Z,73.37
2023-05-15T02:37:39.513Z,73.32
2023-05-15T02:40:01.893Z,73.01
2023-05-15T02:42:23.937Z,72.70
2023-05-15T02:44:46.650Z,73.35
2023-05-15T02:47:08.482Z,74.37
2023-05-15T02:49:30.028Z,73.95
2023-05-15T02:51:51.526Z,73.82
2023-05-15T02:54:13.616Z,75.21
2023-05-15T02:56:35.421Z,73.93
2023-05-15T02:58:56.951Z,73.36
2023-05-15T03:01:18.452Z,73.29
2023-05-15T03:03:39.923Z,73.03
2023-05-15T03:06:01.558Z,72.77
2023-05-15T03:08:23.020Z,72.89
2023-05-15T03:10:44.700Z,72.87
2023-05-15T03:13:06.190Z,75.16
2023-05-15T03:15:27.857Z,74.29
2023-05-15T03:17:49.460Z,73.59
2023-05-15T03:20:11.220Z,73.28
2023-05-15T03:22:32.640Z,73.18
2023-05-15T03:24:54.066Z,73.96
2023-05-15T03:27:15.676Z,75.52
2023-05-15T03:29:37.106Z,77.31
2023-05-15T03:31:58.613Z,76.12
2023-05-15T03:34:20.124Z,75.02
2023-05-15T03:36:41.549Z,77.82
2023-05-15T03:39:03.064Z,76.22
2023-05-15T03:41:26.052Z,75.67
2023-05-15T03:43:47.486Z,75.88
2023-05-15T03:46:08.925Z,75.85
2023-05-15T03:48:30.378Z,75.63
2023-05-15T03:50:52.330Z,75.79
2023-05-15T03:53:13.840Z,75.02
2023-05-15T03:55:35.716Z,75.84
2023-05-15T03:57:57.840Z,75.68
2023-05-15T04:00:19.519Z,75.30
2023-05-15T04:02:41.476Z,74.91
2023-05-15T04:05:06.832Z,74.68
2023-05-15T04:07:28.329Z,74.20
2023-05-15T04:09:49.768Z,74.07
2023-05-15T04:12:11.479Z,73.95
2023-05-15T04:14:32.928Z,73.78
2023-05-15T04:16:54.353Z,73.86
2023-05-15T04:19:15.837Z,73.43
2023-05-15T04:21:37.299Z,73.28
2023-05-15T04:23:58.729Z,73.10
2023-05-15T04:26:20.196Z,73.55
2023-05-15T04:28:49.321Z,73.02
2023-05-15T04:31:17.815Z,73.53
2023-05-15T04:33:39.294Z,73.41
2023-05-15T04:36:00.805Z,73.06
2023-05-15T04:38:22.357Z,74.06
2023-05-15T04:40:44.206Z,73.94
2023-05-15T04:43:06.019Z,73.42
2023-05-15T04:45:27.475Z,74.13
2023-05-15T04:47:48.982Z,73.92
2023-05-15T04:50:10.670Z,73.51
2023-05-15T04:52:32.581Z,73.64
2023-05-15T04:54:55.829Z,74.35
2023-05-15T04:57:17.590Z,73.82
2023-05-15T04:59:39.081Z,73.56
2023-05-15T05:02:01.904Z,73.21
2023-05-15T05:04:23.500Z,73.23
2023-05-15T05:06:45.912Z,73.16
2023-05-15T05:09:07.340Z,73.24
2023-05-15T05:11:29.069Z,73.15
2023-05-15T05:13:51.826Z,72.98
2023-05-15T05:16:13.393Z,72.90
2023-05-15T05:18:34.976Z,72.98
2023-05-15T05:21:03.498Z,73.01
2023-05-15T05:23:24.901Z,72.92
2023-05-15T05:25:46.324Z,72.99
2023-05-15T05:28:07.838Z,73.20
2023-05-15T05:30:29.285Z,73.34
2023-05-15T05:32:50.805Z,73.15
2023-05-15T05:35:12.274Z,73.14
2023-05-15T05:37:33.770Z,73.21
2023-05-15T05:39:55.230Z,72.97
2023-05-15T05:42:16.630Z,72.91
2023-05-15T05:44:38.060Z,72.71
2023-05-15T05:46:59.475Z,72.48
2023-05-15T05:49:21.005Z,72.74
2023-05-15T05:51:42.481Z,72.24
2023-05-15T05:54:04.072Z,72.63
2023-05-15T05:56:26.620Z,71.90
2023-05-15T05:58:48.244Z,71.40
2023-05-15T06:01:10.082Z,70.99
2023-05-15T06:03:31.874Z,74.97
2023-05-15T06:05:53.816Z,71.87
2023-05-15T06:08:15.460Z,74.33
2023-05-15T06:10:36.917Z,72.78
2023-05-15T06:12:58.378Z,73.33
2023-05-15T06:15:19.855Z,73.47
2023-05-15T06:17:41.582Z,72.75
2023-05-15T06:20:06.986Z,73.11
2023-05-15T06:22:28.531Z,73.25
2023-05-15T06:24:49.983Z,72.73
2023-05-15T06:27:11.478Z,72.72
2023-05-15T06:29:32.916Z,71.83
2023-05-15T06:31:54.376Z,71.73
2023-05-15T06:34:15.807Z,71.14
2023-05-15T06:36:37.443Z,71.18
2023-05-15T06:38:58.852Z,70.98
2023-05-15T06:41:20.278Z,70.67
2023-05-15T06:43:41.705Z,70.90
2023-05-15T06:46:03.384Z,70.62
2023-05-15T06:48:24.894Z,71.10
2023-05-15T06:50:46.338Z,71.91
2023-05-15T06:53:07.792Z,73.40
2023-05-15T06:55:29.370Z,72.02
2023-05-15T06:57:50.877Z,72.77
2023-05-15T07:00:12.908Z,72.11
2023-05-15T07:02:34.380Z,72.45
2023-05-15T07:04:56.216Z,72.47
2023-05-15T07:07:18.313Z,73.67
2023-05-15T07:09:39.781Z,71.18
2023-05-15T07:12:01.207Z,70.92
2023-05-15T07:14:22.658Z,69.94
2023-05-15T07:16:45.138Z,70.56
2023-05-15T07:19:09.183Z,67.89
2023-05-15T07:21:30.854Z,67.72
2023-05-15T07:23:52.292Z,66.12
2023-05-15T07:26:20.094Z,65.55
2023-05-15T07:28:49.296Z,64.82
2023-05-15T07:31:10.724Z,65.23
2023-05-15T07:33:32.161Z,64.91
2023-05-15T07:35:53.562Z,63.77
2023-05-15T07:38:15.044Z,63.97
2023-05-15T07:40:36.542Z,64.80
2023-05-15T07:42:58.505Z,65.04
2023-05-15T07:45:19.998Z,64.05
2023-05-15T07:47:47.093Z,64.02
2023-05-15T07:50:09.082Z,65.10
2023-05-15T07:52:30.624Z,63.71
2023-05-15T07:54:52.073Z,66.01
2023-05-15T07:57:14.195Z,60.07
2023-05-15T07:59:36.572Z,60.81
2023-05-15T08:01:58.094Z,60.72
2023-05-15T08:04:19.635Z,58.61
2023-05-15T08:06:42.778Z,59.35
2023-05-15T08:09:05.987Z,57.03
2023-05-15T08:11:27.445Z,56.01
2023-05-15T08:13:48.981Z,57.83
2023-05-15T08:16:10.645Z,56.45
2023-05-15T08:18:32.311Z,53.82
2023-05-15T08:20:53.766Z,55.30
2023-05-15T08:23:15.261Z,56.54
2023-05-15T08:25:36.706Z,54.31
2023-05-15T08:27:58.200Z,57.51
2023-05-15T08:30:19.648Z,55.45
2023-05-15T08:32:43.952Z,54.49
2023-05-15T08:35:05.897Z,56.85
2023-05-15T08:37:27.340Z,57.42
2023-05-15T08:39:48.802Z,54.67
2023-05-15T08:42:34.105Z,54.56
2023-05-15T08:44:55.949Z,53.87
2023-05-15T08:47:19.396Z,53.93
2023-05-15T08:50:06.056Z,54.33
2023-05-15T08:52:28.684Z,52.41
2023-05-15T08:54:50.777Z,55.24
2023-05-15T08:57:12.210Z,54.72
2023-05-15T08:59:33.671Z,50.58
2023-05-15T09:01:56.068Z,52.22
2023-05-15T09:04:17.531Z,49.87
2023-05-15T09:06:40.814Z,51.29
2023-05-15T09:09:05.188Z,48.25
2023-05-15T09:11:27.008Z,48.37
2023-05-15T09:13:48.442Z,49.17
2023-05-15T09:16:09.952Z,47.70
2023-05-15T09:18:32.589Z,48.03
2023-05-15T09:20:56.066Z,46.74
2023-05-15T09:23:26.947Z,45.89
2023-05-15T09:25:53.144Z,44.98
2023-05-15T09:28:32.418Z,44.69
2023-05-15T09:31:04.800Z,44.42
2023-05-15T09:33:34.501Z,44.54
2023-05-15T09:35:56.080Z,42.55
2023-05-15T09:38:18.967Z,45.37
2023-05-15T09:40:41.061Z,45.01
2023-05-15T09:43:02.589Z,45.80
2023-05-15T09:45:29.852Z,47.08
2023-05-15T09:47:52.078Z,48.43
2023-05-15T09:50:21.477Z,50.93
2023-05-15T09:52:42.948Z,52.81
2023-05-15T09:55:06.216Z,52.23
2023-05-15T09:57:27.635Z,53.56
2023-05-15T09:59:49.598Z,52.37
2023-05-15T10:02:35.299Z,49.83
2023-05-15T10:04:58.158Z,48.79
2023-05-15T10:07:36.478Z,49.24
2023-05-15T10:09:58.496Z,49.43
2023-05-15T10:12:20.327Z,47.70
2023-05-15T10:14:41.823Z,47.79
2023-05-15T10:17:03.342Z,47.27
2023-05-15T10:19:27.788Z,46.44
2023-05-15T10:21:52.774Z,46.04
2023-05-15T10:24:16.593Z,43.26
2023-05-15T10:26:42.733Z,44.24
2023-05-15T10:29:07.213Z,41.05
2023-05-15T10:31:30.120Z,41.46
2023-05-15T10:33:55.273Z,41.99
2023-05-15T10:36:18.057Z,40.76
2023-05-15T10:38:40.270Z,40.51
2023-05-15T10:41:15.908Z,41.28
2023-05-15T10:43:39.746Z,39.55
2023-05-15T10:46:02.022Z,37.91
2023-05-15T10:48:24.955Z,38.44
2023-05-15T10:50:48.748Z,36.98
2023-05-15T10:53:10.880Z,38.53
2023-05-15T10:55:32.608Z,37.43
2023-05-15T10:57:54.978Z,38.88
2023-05-15T11:00:22.433Z,38.83
2023-05-15T11:02:44.804Z,38.97
2023-05-15T11:05:07.044Z,39.67
2023-05-15T11:07:28.586Z,40.51
2023-05-15T11:09:50.556Z,39.58
2023-05-15T11:12:12.166Z,40.69
2023-05-15T11:14:40.564Z,39.08
2023-05-15T11:17:12.306Z,39.58
2023-05-15T11:20:03.289Z,39.55
2023-05-15T11:22:30.830Z,37.01
2023-05-15T11:24:59.401Z,35.13
2023-05-15T11:27:26.313Z,34.18
2023-05-15T11:30:29.600Z,34.69
2023-05-15T11:33:04.274Z,34.13
2023-05-15T11:35:43.256Z,34.03
2023-05-15T11:38:10.956Z,34.35
2023-05-15T11:40:43.877Z,34.64
2023-05-15T11:43:18.366Z,33.16
2023-05-15T11:45:40.540Z,33.41
2023-05-15T11:48:03.641Z,32.71
2023-05-15T11:50:25.638Z,34.01
2023-05-15T11:52:49.607Z,33.86
2023-05-15T11:55:11.279Z,33.99
2023-05-15T11:57:32.901Z,34.48
2023-05-15T11:59:55.666Z,35.91
2023-05-15T12:02:17.121Z,36.12
2023-05-15T12:04:38.560Z,37.47
2023-05-15T12:07:03.215Z,37.08
2023-05-15T12:09:27.624Z,37.04
2023-05-15T12:11:53.420Z,36.33
2023-05-15T12:14:14.872Z,35.28
2023-05-15T12:16:36.374Z,33.23
2023-05-15T12:18:58.087Z,32.35
2023-05-15T12:21:19.674Z,31.32
2023-05-15T12:23:41.168Z,30.41
2023-05-15T12:26:03.708Z,28.28
2023-05-15T12:28:26.846Z,28.68
2023-05-15T12:30:49.396Z,28.32
2023-05-15T12:33:11.228Z,27.79
2023-05-15T12:35:34.721Z,28.90
2023-05-15T12:37:56.280Z,28.87
2023-05-15T12:40:21.512Z,30.37
2023-05-15T12:42:44.723Z,30.91
2023-05-15T12:45:16.344Z,31.26
2023-05-15T12:47:38.252Z,32.02
2023-05-15T12:49:59.906Z,31.26
2023-05-15T12:52:21.331Z,31.01
2023-05-15T12:54:44.678Z,30.39
2023-05-15T12:57:06.215Z,32.33
2023-05-15T12:59:28.657Z,32.31
2023-05-15T13:01:50.491Z,32.67
2023-05-15T13:04:12.021Z,32.34
2023-05-15T13:06:45.083Z,33.28
2023-05-15T13:09:08.397Z,31.78
2023-05-15T13:11:31.593Z,32.15
2023-05-15T13:13:53.039Z,34.00
2023-05-15T13:16:22.453Z,33.59
2023-05-15T13:18:44.329Z,32.56
2023-05-15T13:21:05.806Z,32.25
2023-05-15T13:23:27.267Z,32.45
2023-05-15T13:25:48.751Z,32.37
2023-05-15T13:28:11.417Z,32.82
2023-05-15T13:30:39.065Z,33.30
2023-05-15T13:33:01.549Z,32.92
2023-05-15T13:35:23.356Z,33.40
2023-05-15T13:37:44.828Z,33.99
2023-05-15T13:40:10.083Z,33.15
2023-05-15T13:42:31.502Z,33.92
2023-05-15T13:44:53.209Z,33.05
2023-05-15T13:47:15.444Z,33.73
2023-05-15T13:49:37.086Z,32.99
2023-05-15T13:51:58.586Z,33.09
2023-05-15T13:54:20.042Z,34.29
2023-05-15T13:56:41.500Z,33.37
2023-05-15T13:59:02.956Z,32.31
2023-05-15T14:01:24.466Z,32.20
2023-05-15T14:03:46.019Z,31.59
2023-05-15T14:06:07.558Z,31.86
2023-05-15T14:08:29.054Z,31.90
2023-05-15T14:10:50.490Z,30.55
2023-05-15T14:13:11.923Z,31.24
2023-05-15T14:15:33.367Z,31.72
2023-05-15T14:17:54.832Z,30.83
2023-05-15T14:20:16.342Z,32.20
2023-05-15T14:22:38.533Z,32.12
2023-05-15T14:24:59.976Z,32.22
2023-05-15T14:27:21.436Z,31.99
2023-05-15T14:29:44.819Z,32.27
2023-05-15T14:32:06.863Z,32.60
2023-05-15T14:34:30.356Z,32.44
2023-05-15T14:36:51.889Z,32.68
2023-05-15T14:39:16.996Z,32.63
2023-05-15T14:41:38.491Z,31.93
2023-05-15T14:44:00.002Z,31.71
2023-05-15T14:46:21.571Z,32.02
2023-05-15T14:48:43.114Z,32.44
2023-05-15T14:51:05.038Z,33.59
2023-05-15T14:53:27.430Z,32.95
2023-05-15T14:55:48.890Z,32.86
2023-05-15T14:58:11.416Z,32.59
2023-05-15T15:00:32.952Z,31.02
2023-05-15T15:02:54.444Z,28.80
2023-05-15T15:05:16.042Z,27.42
2023-05-15T15:08:09.356Z,26.02
2023-05-15T15:10:32.629Z,24.39
2023-05-15T15:12:54.349Z,25.10
2023-05-15T15:15:15.858Z,23.91
2023-05-15T15:17:37.269Z,24.87
2023-05-15T15:19:58.734Z,23.81
2023-05-15T15:22:20.160Z,23.64
2023-05-15T15:24:41.603Z,24.01
2023-05-15T15:27:03.089Z,24.28
2023-05-15T15:29:24.604Z,23.71
2023-05-15T15:31:46.034Z,23.43
2023-05-15T15:34:09.083Z,23.04
2023-05-15T15:36:31.369Z,23.65
2023-05-15T15:38:52.992Z,24.29
2023-05-15T15:41:14.440Z,24.74
2023-05-15T15:43:36.087Z,25.76
2023-05-15T15:45:57.641Z,26.89
2023-05-15T15:48:19.145Z,29.01
2023-05-15T15:50:40.666Z,30.06
2023-05-15T15:53:02.078Z,30.14
2023-05-15T15:55:23.517Z,29.49
2023-05-15T15:57:45.002Z,28.64
2023-05-15T16:00:08.261Z,27.48
2023-05-15T16:02:29.817Z,27.33
2023-05-15T16:04:51.244Z,26.28
2023-05-15T16:07:12.699Z,25.91
2023-05-15T16:09:34.408Z,25.91
2023-05-15T16:11:56.048Z,26.29
2023-05-15T16:14:18.874Z,26.31
2023-05-15T16:16:40.627Z,26.47
2023-05-15T16:19:02.124Z,25.74
2023-05-15T16:21:23.608Z,25.99
2023-05-15T16:23:45.474Z,25.82
2023-05-15T16:26:08.229Z,25.57
2023-05-15T16:28:29.662Z,25.99
2023-05-15T16:30:51.576Z,26.72
2023-05-15T16:33:13.637Z,27.58
2023-05-15T16:35:36.753Z,28.60
2023-05-15T16:37:58.170Z,31.88
2023-05-15T16:40:19.629Z,37.10
2023-05-15T16:42:41.497Z,40.79
2023-05-15T16:45:03.515Z,43.45
2023-05-15T16:47:24.983Z,45.67
2023-05-15T16:49:48.344Z,48.23
2023-05-15T16:52:11.427Z,49.88
2023-05-15T16:54:32.991Z,51.96
2023-05-15T16:56:55.903Z,53.23
2023-05-15T16:59:17.350Z,54.56
2023-05-15T17:01:38.832Z,55.24
2023-05-15T17:04:00.359Z,56.73
2023-05-15T17:06:21.791Z,57.69
2023-05-15T17:08:45.163Z,56.80
2023-05-15T17:11:06.562Z,57.45
2023-05-15T17:13:28.033Z,57.17
2023-05-15T17:15:49.853Z,55.93
2023-05-15T17:18:11.355Z,56.71
2023-05-15T17:20:32.773Z,57.50
2023-05-15T17:22:54.233Z,56.89
2023-05-15T17:25:15.767Z,56.89
2023-05-15T17:27:41.113Z,58.10
2023-05-15T17:30:02.593Z,58.69
2023-05-15T17:32:24.124Z,57.91
2023-05-15T17:34:46.351Z,58.51
2023-05-15T17:37:08.841Z,58.19
2023-05-15T17:39:30.247Z,56.23
2023-05-15T17:41:51.693Z,54.50
2023-05-15T17:44:13.304Z,54.50
2023-05-15T17:46:34.932Z,54.66
2023-05-15T17:48:56.416Z,55.84
2023-05-15T17:51:17.865Z,55.83
2023-05-15T17:53:39.409Z,55.76
2023-05-15T17:56:01.250Z,57.32
2023-05-15T17:58:22.799Z,56.48
2023-05-15T18:00:44.403Z,54.71
2023-05-15T18:03:05.902Z,55.41
2023-05-15T18:05:27.797Z,56.00
2023-05-15T18:07:49.584Z,56.01
2023-05-15T18:10:11.067Z,56.40
2023-05-15T18:12:32.551Z,57.54
2023-05-15T18:14:54.378Z,57.58
2023-05-15T18:17:16.249Z,57.75
2023-05-15T18:19:39.636Z,58.20
2023-05-15T18:22:03.289Z,58.37
2023-05-15T18:24:24.806Z,58.57
2023-05-15T18:26:46.892Z,59.55
2023-05-15T18:29:08.840Z,60.51
2023-05-15T18:31:30.319Z,61.84
2023-05-15T18:33:51.854Z,63.15
2023-05-15T18:36:13.368Z,63.35
2023-05-15T18:38:34.857Z,64.16
2023-05-15T18:40:56.313Z,65.00
2023-05-15T18:43:17.744Z,65.30
2023-05-15T18:45:39.453Z,66.07
2023-05-15T18:48:00.909Z,67.25
2023-05-15T18:50:24.901Z,67.91
2023-05-15T18:52:46.732Z,67.76
2023-05-15T18:55:09.789Z,66.54
2023-05-15T18:57:31.225Z,66.04
2023-05-15T18:59:52.929Z,64.87
2023-05-15T19:02:14.695Z,63.51
2023-05-15T19:04:36.360Z,62.99
2023-05-15T19:06:57.926Z,62.52
2023-05-15T19:09:19.799Z,64.23
2023-05-15T19:11:41.224Z,64.11
2023-05-15T19:14:02.765Z,64.05
2023-05-15T19:16:28.451Z,63.72
2023-05-15T19:18:50.149Z,63.52
2023-05-15T19:21:11.758Z,62.88
2023-05-15T19:23:33.191Z,62.94
2023-05-15T19:25:54.607Z,62.27
2023-05-15T19:28:16.224Z,62.04
2023-05-15T19:30:37.624Z,61.61
2023-05-15T19:32:59.140Z,61.47
2023-05-15T19:35:20.633Z,61.79
2023-05-15T19:37:42.387Z,62.48
2023-05-15T19:40:04.642Z,62.07
2023-05-15T19:42:26.489Z,64.18
2023-05-15T19:44:47.930Z,63.08
2023-05-15T19:47:09.769Z,63.09
2023-05-15T19:49:31.273Z,64.11
2023-05-15T19:51:52.777Z,63.48
2023-05-15T19:54:15.992Z,63.42
2023-05-15T19:56:37.478Z,64.43
2023-05-15T19:59:00.433Z,64.55
2023-05-15T20:01:22.018Z,65.39
2023-05-15T20:03:43.687Z,64.44
2023-05-15T20:06:05.757Z,64.28
2023-05-15T20:08:27.532Z,64.39
2023-05-15T20:10:52.596Z,64.17
2023-05-15T20:13:14.018Z,64.14
2023-05-15T20:15:35.955Z,64.03
2023-05-15T20:17:57.848Z,66.16
2023-05-15T20:20:19.388Z,64.68
2023-05-15T20:22:43.439Z,66.34
2023-05-15T20:25:06.325Z,65.40
2023-05-15T20:27:27.716Z,65.38
2023-05-15T20:29:49.206Z,66.82
2023-05-15T20:32:11.045Z,67.85
2023-05-15T20:34:33.389Z,67.91
2023-05-15T20:36:56.225Z,69.72
2023-05-15T20:39:17.914Z,69.66
2023-05-15T20:41:39.335Z,68.36
2023-05-15T20:44:01.045Z,67.53
2023-05-15T20:46:22.531Z,67.11
2023-05-15T20:48:44.148Z,67.03
2023-05-15T20:51:05.573Z,67.29
2023-05-15T20:53:28.811Z,67.36
2023-05-15T20:55:50.350Z,66.65
2023-05-15T20:58:11.780Z,67.14
2023-05-15T21:00:33.305Z,67.83
2023-05-15T21:02:54.814Z,67.35
2023-05-15T21:05:16.374Z,66.96
2023-05-15T21:07:38.074Z,66.96
2023-05-15T21:09:59.572Z,69.22
2023-05-15T21:12:20.986Z,67.99
2023-05-15T21:14:42.396Z,69.77
2023-05-15T21:17:03.961Z,68.81
2023-05-15T21:19:25.490Z,68.51
2023-05-15T21:21:46.926Z,68.12
2023-05-15T21:24:08.512Z,67.58
2023-05-15T21:26:30.446Z,67.13
2023-05-15T21:28:51.882Z,66.86
2023-05-15T21:31:13.472Z,67.03
2023-05-15T21:33:35.700Z,66.81
2023-05-15T21:35:57.125Z,67.14
2023-05-15T21:38:18.549Z,67.39
2023-05-15T21:40:39.997Z,68.04
2023-05-15T21:43:01.467Z,67.89
2023-05-15T21:45:23.236Z,70.08
2023-05-15T21:47:44.790Z,68.88
2023-05-15T21:50:07.111Z,71.68
2023-05-15T21:52:28.548Z,69.77
2023-05-15T21:54:50.128Z,71.73
2023-05-15T21:57:11.594Z,69.90
2023-05-15T21:59:33.028Z,70.46
2023-05-15T22:01:54.495Z,69.99
2023-05-15T22:04:16.102Z,70.91
2023-05-15T22:06:37.509Z,70.40
2023-05-15T22:08:58.938Z,70.30
2023-05-15T22:11:20.705Z,71.40
2023-05-15T22:13:42.219Z,70.39
2023-05-15T22:16:03.738Z,69.58
2023-05-15T22:18:26.188Z,69.42
2023-05-15T22:20:48.732Z,70.05
2023-05-15T22:23:10.497Z,71.20
2023-05-15T22:25:31.908Z,70.15
2023-05-15T22:27:53.387Z,70.60
2023-05-15T22:30:14.986Z,74.54
2023-05-15T22:32:36.569Z,72.88
2023-05-15T22:34:58.698Z,74.30
2023-05-15T22:37:20.371Z,72.54
2023-05-15T22:39:42.443Z,77.03
2023-05-15T22:42:04.207Z,75.03
2023-05-15T22:44:25.687Z,76.05
2023-05-15T22:46:47.135Z,75.63
2023-05-15T22:49:09.948Z,75.54
2023-05-15T22:51:31.650Z,77.08
2023-05-15T22:53:53.090Z,77.26
2023-05-15T22:56:14.851Z,77.66
2023-05-15T22:58:36.342Z,77.05
2023-05-15T23:00:57.844Z,81.14
2023-05-15T23:03:19.432Z,82.53
2023-05-15T23:05:41.221Z,78.75
2023-05-15T23:08:02.677Z,78.35
2023-05-15T23:10:24.383Z,81.80
2023-05-15T23:12:46.306Z,80.88
2023-05-15T23:15:10.367Z,82.79
2023-05-15T23:17:31.916Z,81.92
2023-05-15T23:19:53.534Z,81.88
2023-05-15T23:22:15.013Z,80.84
2023-05-15T23:24:36.446Z,81.51
2023-05-15T23:26:57.889Z,81.50
2023-05-15T23:29:19.375Z,80.42
2023-05-15T23:31:42.902Z,79.56
2023-05-15T23:34:04.494Z,79.33
2023-05-15T23:36:25.966Z,79.20
2023-05-15T23:38:47.370Z,78.28
2023-05-15T23:41:08.878Z,78.27
2023-05-15T23:43:30.437Z,77.96
2023-05-15T23:45:51.861Z,77.45
2023-05-15T23:48:13.320Z,77.51
2023-05-15T23:50:35.041Z,77.95
2023-05-15T23:52:56.451Z,77.41
2023-05-15T23:55:17.916Z,77.33
2023-05-15T23:57:39.814Z,78.81
